createdAt,value
2023-04-18T00:01:19.099Z,9.31
2023-04-18T00:03:45.791Z,9.30
2023-04-18T00:06:13.764Z,9.07
2023-04-18T00:08:40.349Z,9.22
2023-04-18T00:11:07.012Z,9.23
2023-04-18T00:13:33.493Z,9.21
2023-04-18T00:15:59.889Z,9.17
2023-04-18T00:18:27.113Z,9.19
2023-04-18T00:20:54.424Z,9.15
2023-04-18T00:23:22.254Z,9.16
2023-04-18T00:25:48.768Z,9.18
2023-04-18T00:28:15.212Z,9.15
2023-04-18T00:30:41.753Z,9.12
2023-04-18T00:33:08.872Z,9.11
2023-04-18T00:35:35.377Z,9.08
2023-04-18T00:38:01.772Z,9.02
2023-04-18T00:40:28.219Z,9.02
2023-04-18T00:42:54.694Z,8.99
2023-04-18T00:45:21.126Z,8.97
2023-04-18T00:47:47.564Z,8.90
2023-04-18T00:50:15.011Z,8.83
2023-04-18T00:52:42.218Z,8.78
2023-04-18T00:55:09.337Z,8.56
2023-04-18T00:57:36.379Z,8.62
2023-04-18T01:00:10.348Z,8.57
2023-04-18T01:02:37.700Z,8.27
2023-04-18T01:05:04.461Z,8.52
2023-04-18T01:07:33.358Z,8.49
2023-04-18T01:10:00.524Z,8.50
2023-04-18T01:12:26.984Z,8.46
2023-04-18T01:14:53.607Z,8.43
2023-04-18T01:17:20.060Z,8.41
2023-04-18T01:19:46.823Z,8.39
2023-04-18T01:22:14.636Z,8.35
2023-04-18T01:24:42.090Z,8.08
2023-04-18T01:27:12.372Z,8.24
2023-04-18T01:29:39.121Z,8.18
2023-04-18T01:32:06.502Z,8.11
2023-04-18T01:34:32.964Z,7.98
2023-04-18T01:36:59.584Z,7.95
2023-04-18T01:39:26.012Z,7.88
2023-04-18T01:41:52.569Z,7.84
2023-04-18T01:44:19.031Z,7.79
2023-04-18T01:46:45.463Z,7.72
2023-04-18T01:49:11.870Z,7.68
2023-04-18T01:51:43.063Z,7.63
2023-04-18T01:54:09.486Z,7.58
2023-04-18T01:56:35.868Z,7.58
2023-04-18T01:59:02.384Z,7.57
2023-04-18T02:01:28.837Z,7.56
2023-04-18T02:03:55.491Z,7.52
2023-04-18T02:06:22.125Z,7.53
2023-04-18T02:08:48.694Z,7.50
2023-04-18T02:11:15.096Z,7.51
2023-04-18T02:13:41.733Z,7.47
2023-04-18T02:16:12.914Z,7.44
2023-04-18T02:18:40.125Z,7.40
2023-04-18T02:21:06.729Z,7.35
2023-04-18T02:23:33.153Z,7.31
2023-04-18T02:25:59.603Z,7.25
2023-04-18T02:28:26.032Z,7.24
2023-04-18T02:30:52.408Z,7.18
2023-04-18T02:33:18.864Z,7.11
2023-04-18T02:35:45.240Z,7.07
2023-04-18T02:38:11.788Z,7.02
2023-04-18T02:40:38.192Z,7.00
2023-04-18T02:43:04.643Z,6.99
2023-04-18T02:45:31.260Z,6.95
2023-04-18T02:47:57.706Z,6.91
2023-04-18T02:50:25.073Z,6.88
2023-04-18T02:52:51.643Z,6.84
2023-04-18T02:55:18.226Z,6.80
2023-04-18T02:57:44.654Z,6.77
2023-04-18T03:00:11.849Z,6.73
2023-04-18T03:02:38.348Z,6.67
2023-04-18T03:05:05.945Z,6.54
2023-04-18T03:07:32.557Z,6.63
2023-04-18T03:09:59.868Z,6.60
2023-04-18T03:12:26.344Z,6.39
2023-04-18T03:14:52.764Z,6.54
2023-04-18T03:17:19.385Z,6.49
2023-04-18T03:19:46.522Z,6.48
2023-04-18T03:22:14.149Z,6.46
2023-04-18T03:24:40.850Z,6.44
2023-04-18T03:27:07.319Z,6.40
2023-04-18T03:29:34.001Z,6.34
2023-04-18T03:32:00.429Z,6.27
2023-04-18T03:34:27.044Z,6.21
2023-04-18T03:36:54.095Z,6.21
2023-04-18T03:39:20.555Z,6.17
2023-04-18T03:41:46.982Z,6.15
2023-04-18T03:44:13.520Z,6.13
2023-04-18T03:46:40.706Z,6.08
2023-04-18T03:49:07.172Z,6.10
2023-04-18T03:51:42.070Z,5.78
2023-04-18T03:54:08.577Z,5.95
2023-04-18T03:56:35.689Z,5.97
2023-04-18T03:59:02.057Z,5.92
2023-04-18T04:01:28.517Z,5.89
2023-04-18T04:03:55.058Z,5.91
2023-04-18T04:06:21.719Z,5.88
2023-04-18T04:08:48.173Z,5.88
2023-04-18T04:11:14.560Z,5.87
2023-04-18T04:13:40.970Z,5.86
2023-04-18T04:16:07.867Z,5.86
2023-04-18T04:18:34.373Z,5.82
2023-04-18T04:21:00.985Z,5.79
2023-04-18T04:23:27.615Z,5.65
2023-04-18T04:25:54.914Z,5.74
2023-04-18T04:28:22.933Z,5.74
2023-04-18T04:30:50.815Z,5.78
2023-04-18T04:33:20.925Z,5.77
2023-04-18T04:35:47.939Z,5.71
2023-04-18T04:38:15.284Z,5.72
2023-04-18T04:40:42.368Z,5.70
2023-04-18T04:43:12.490Z,5.65
2023-04-18T04:45:42.020Z,5.65
2023-04-18T04:48:09.492Z,5.67
2023-04-18T04:50:37.325Z,5.44
2023-04-18T04:53:07.344Z,5.66
2023-04-18T04:55:34.493Z,5.69
2023-04-18T04:58:01.016Z,5.67
2023-04-18T05:00:28.798Z,5.62
2023-04-18T05:02:56.255Z,5.65
2023-04-18T05:05:23.303Z,5.69
2023-04-18T05:07:49.733Z,5.70
2023-04-18T05:10:16.221Z,5.67
2023-04-18T05:12:42.749Z,5.72
2023-04-18T05:15:09.551Z,5.69
2023-04-18T05:17:36.014Z,5.72
2023-04-18T05:20:02.420Z,5.69
2023-04-18T05:22:28.824Z,5.74
2023-04-18T05:24:55.288Z,5.79
2023-04-18T05:27:21.907Z,5.85
2023-04-18T05:29:50.147Z,5.85
2023-04-18T05:32:16.705Z,5.91
2023-04-18T05:34:43.270Z,5.94
2023-04-18T05:37:09.830Z,5.94
2023-04-18T05:39:36.427Z,6.03
2023-04-18T05:42:03.273Z,6.06
2023-04-18T05:44:29.958Z,6.14
2023-04-18T05:46:56.365Z,6.19
2023-04-18T05:49:25.296Z,5.95
2023-04-18T05:51:52.763Z,6.25
2023-04-18T05:54:21.495Z,6.32
2023-04-18T05:56:48.235Z,6.34
2023-04-18T05:59:14.633Z,6.38
2023-04-18T06:01:41.038Z,6.43
2023-04-18T06:04:08.584Z,6.50
2023-04-18T06:06:35.896Z,6.53
2023-04-18T06:09:02.377Z,6.56
2023-04-18T06:11:28.872Z,6.61
2023-04-18T06:13:56.042Z,6.68
2023-04-18T06:16:22.596Z,6.75
2023-04-18T06:18:49.026Z,6.80
2023-04-18T06:21:15.581Z,6.81
2023-04-18T06:23:41.993Z,6.88
2023-04-18T06:26:09.193Z,6.96
2023-04-18T06:28:35.853Z,7.02
2023-04-18T06:31:02.578Z,6.92
2023-04-18T06:33:29.042Z,7.05
2023-04-18T06:35:55.752Z,7.14
2023-04-18T06:38:22.206Z,7.26
2023-04-18T06:40:48.612Z,7.37
2023-04-18T06:43:15.045Z,7.60
2023-04-18T06:45:41.633Z,8.14
2023-04-18T06:48:09.127Z,8.66
2023-04-18T06:50:35.780Z,9.16
2023-04-18T06:53:02.264Z,9.39
2023-04-18T06:55:28.745Z,9.53
2023-04-18T06:57:55.402Z,9.56
2023-04-18T07:00:22.158Z,10.06
2023-04-18T07:02:48.903Z,10.54
2023-04-18T07:05:15.513Z,10.97
2023-04-18T07:07:41.909Z,11.30
2023-04-18T07:10:09.788Z,11.79
2023-04-18T07:12:36.336Z,11.86
2023-04-18T07:15:03.795Z,12.05
2023-04-18T07:17:30.394Z,12.33
2023-04-18T07:19:56.836Z,12.94
2023-04-18T07:22:23.257Z,13.10
2023-04-18T07:24:49.674Z,13.21
2023-04-18T07:27:16.150Z,13.08
2023-04-18T07:29:42.572Z,13.72
2023-04-18T07:32:10.853Z,13.75
2023-04-18T07:34:37.492Z,13.22
2023-04-18T07:37:04.051Z,13.08
2023-04-18T07:39:35.713Z,13.17
2023-04-18T07:42:04.088Z,13.26
2023-04-18T07:44:30.646Z,13.38
2023-04-18T07:46:57.137Z,13.45
2023-04-18T07:49:23.544Z,13.49
2023-04-18T07:51:49.960Z,13.66
2023-04-18T07:54:16.830Z,13.52
2023-04-18T07:56:43.357Z,13.73
2023-04-18T07:59:09.819Z,13.98
2023-04-18T08:01:36.225Z,14.08
2023-04-18T08:04:02.771Z,14.15
2023-04-18T08:06:29.425Z,13.89
2023-04-18T08:08:55.893Z,13.92
2023-04-18T08:11:22.302Z,13.67
2023-04-18T08:13:48.726Z,13.49
2023-04-18T08:16:17.366Z,13.42
2023-04-18T08:18:44.174Z,13.47
2023-04-18T08:21:10.694Z,13.67
2023-04-18T08:23:37.132Z,13.92
2023-04-18T08:26:03.552Z,14.16
2023-04-18T08:28:30.041Z,14.10
2023-04-18T08:30:56.659Z,13.71
2023-04-18T08:33:24.029Z,14.17
2023-04-18T08:35:53.206Z,14.20
2023-04-18T08:38:19.732Z,13.95
2023-04-18T08:40:46.489Z,13.61
2023-04-18T08:43:14.852Z,12.61
2023-04-18T08:45:44.985Z,12.84
2023-04-18T08:48:13.799Z,13.25
2023-04-18T08:50:41.494Z,12.82
2023-04-18T08:53:08.477Z,12.97
2023-04-18T08:55:35.615Z,12.73
2023-04-18T08:58:03.202Z,11.75
2023-04-18T09:00:30.482Z,12.03
2023-04-18T09:02:57.604Z,12.09
2023-04-18T09:05:26.893Z,12.09
2023-04-18T09:07:54.648Z,12.25
2023-04-18T09:10:33.363Z,12.36
2023-04-18T09:13:03.284Z,12.24
2023-04-18T09:15:30.439Z,12.02
2023-04-18T09:18:02.752Z,11.73
2023-04-18T09:20:35.772Z,11.47
2023-04-18T09:23:04.271Z,11.15
2023-04-18T09:25:51.288Z,11.05
2023-04-18T09:28:29.670Z,11.02
2023-04-18T09:30:58.497Z,11.06
2023-04-18T09:33:32.957Z,10.97
2023-04-18T09:36:23.782Z,10.76
2023-04-18T09:38:55.371Z,10.66
2023-04-18T09:41:23.137Z,10.87
2023-04-18T09:43:49.614Z,10.75
2023-04-18T09:46:17.657Z,10.62
2023-04-18T09:48:44.276Z,10.49
2023-04-18T09:51:15.711Z,10.74
2023-04-18T09:53:47.648Z,10.67
2023-04-18T09:56:27.476Z,10.46
2023-04-18T09:59:03.555Z,10.67
2023-04-18T10:01:30.784Z,10.70
2023-04-18T10:03:57.827Z,10.57
2023-04-18T10:06:27.294Z,10.61
2023-04-18T10:08:55.030Z,10.69
2023-04-18T10:11:23.596Z,11.17
2023-04-18T10:13:53.560Z,11.45
2023-04-18T10:16:20.720Z,11.75
2023-04-18T10:18:49.654Z,11.68
2023-04-18T10:21:16.430Z,11.44
2023-04-18T10:23:43.055Z,11.27
2023-04-18T10:26:11.115Z,11.66
2023-04-18T10:28:57.233Z,11.52
2023-04-18T10:31:25.961Z,11.64
2023-04-18T10:34:05.700Z,11.63
2023-04-18T10:52:43.737Z,12.64
2023-04-18T10:55:15.763Z,12.78
2023-04-18T10:57:44.913Z,12.98
2023-04-18T11:00:13.889Z,12.94
2023-04-18T11:02:47.610Z,13.01
2023-04-18T11:05:19.420Z,12.63
2023-04-18T11:07:46.576Z,12.68
2023-04-18T11:10:16.143Z,12.62
2023-04-18T11:12:42.785Z,12.79
2023-04-18T11:15:11.676Z,12.87
2023-04-18T11:17:40.119Z,12.59
2023-04-18T11:20:09.237Z,12.61
2023-04-18T11:22:49.796Z,12.48
2023-04-18T11:25:17.367Z,12.59
2023-04-18T11:27:45.223Z,12.56
2023-04-18T11:30:13.106Z,12.57
2023-04-18T11:32:41.417Z,12.82
2023-04-18T11:35:12.936Z,13.07
2023-04-18T11:37:40.688Z,13.37
2023-04-18T11:40:10.150Z,13.39
2023-04-18T11:42:39.017Z,13.69
2023-04-18T11:45:13.050Z,13.86
2023-04-18T11:47:41.954Z,13.86
2023-04-18T11:50:10.996Z,13.18
2023-04-18T11:52:39.018Z,12.60
2023-04-18T11:55:18.415Z,12.90
2023-04-18T11:57:57.794Z,13.05
2023-04-18T12:00:39.508Z,13.10
2023-04-18T12:03:11.807Z,12.94
2023-04-18T12:05:40.091Z,13.46
2023-04-18T12:08:11.540Z,13.89
2023-04-18T12:10:45.262Z,14.01
2023-04-18T12:13:11.822Z,14.23
2023-04-18T12:15:40.754Z,14.27
2023-04-18T12:18:10.078Z,14.37
2023-04-18T12:20:52.314Z,14.65
2023-04-18T12:23:38.309Z,14.77
2023-04-18T12:26:07.225Z,14.98
2023-04-18T12:28:35.546Z,14.61
2023-04-18T12:31:05.346Z,14.55
2023-04-18T12:33:31.842Z,14.75
2023-04-18T12:35:58.899Z,14.81
2023-04-18T12:38:25.636Z,14.84
2023-04-18T12:40:52.467Z,14.94
2023-04-18T12:43:19.687Z,14.38
2023-04-18T12:45:47.334Z,14.61
2023-04-18T12:48:13.860Z,14.60
2023-04-18T12:50:40.437Z,14.58
2023-04-18T12:53:06.915Z,14.35
2023-04-18T12:55:33.495Z,14.29
2023-04-18T12:57:59.968Z,14.21
2023-04-18T13:00:29.246Z,14.43
2023-04-18T13:02:56.353Z,14.54
2023-04-18T13:05:27.318Z,14.30
2023-04-18T13:08:08.498Z,14.31
2023-04-18T13:10:41.591Z,13.95
2023-04-18T13:13:08.003Z,14.10
2023-04-18T13:15:34.451Z,14.22
2023-04-18T13:18:05.086Z,14.21
2023-04-18T13:20:32.124Z,14.23
2023-04-18T13:22:58.562Z,14.16
2023-04-18T13:25:25.936Z,14.21
2023-04-18T13:27:52.435Z,14.18
2023-04-18T13:30:19.109Z,14.33
2023-04-18T13:32:46.240Z,14.37
2023-04-18T13:35:12.792Z,14.41
2023-04-18T13:37:39.553Z,14.40
2023-04-18T13:40:06.925Z,14.27
2023-04-18T13:42:34.032Z,14.40
2023-04-18T13:45:00.477Z,14.25
2023-04-18T13:47:27.220Z,14.02
2023-04-18T13:49:53.803Z,13.95
2023-04-18T13:52:20.375Z,13.81
2023-04-18T13:54:47.056Z,13.87
2023-04-18T13:57:14.620Z,13.96
2023-04-18T13:59:41.344Z,13.97
2023-04-18T14:02:08.870Z,13.89
2023-04-18T14:04:36.201Z,14.01
2023-04-18T14:07:03.743Z,14.04
2023-04-18T14:09:30.279Z,14.18
2023-04-18T14:11:58.205Z,14.18
2023-04-18T14:14:24.708Z,14.26
2023-04-18T14:16:51.224Z,13.98
2023-04-18T14:19:17.895Z,14.45
2023-04-18T14:21:44.350Z,14.74
2023-04-18T14:24:11.976Z,14.92
2023-04-18T14:26:38.401Z,14.96
2023-04-18T14:29:05.105Z,14.95
2023-04-18T14:31:31.587Z,15.09
2023-04-18T14:33:58.070Z,15.11
2023-04-18T14:36:24.553Z,15.02
2023-04-18T14:38:50.985Z,14.79
2023-04-18T14:41:17.446Z,14.91
2023-04-18T14:43:43.925Z,14.97
2023-04-18T14:46:16.445Z,15.03
2023-04-18T14:48:46.267Z,14.84
2023-04-18T14:51:12.939Z,14.99
2023-04-18T14:53:39.347Z,14.91
2023-04-18T14:56:06.057Z,15.12
2023-04-18T14:58:32.471Z,15.10
2023-04-18T15:00:59.012Z,14.93
2023-04-18T15:03:25.575Z,14.85
2023-04-18T15:05:53.136Z,14.80
2023-04-18T15:08:19.662Z,14.68
2023-04-18T15:10:47.512Z,14.70
2023-04-18T15:13:13.963Z,15.02
2023-04-18T15:15:40.531Z,15.10
2023-04-18T15:18:08.309Z,15.20
2023-04-18T15:20:36.988Z,15.26
2023-04-18T15:23:03.679Z,15.28
2023-04-18T15:25:30.990Z,15.15
2023-04-18T15:27:58.376Z,15.07
2023-04-18T15:30:25.426Z,14.65
2023-04-18T15:32:52.163Z,14.64
2023-04-18T15:35:18.874Z,14.60
2023-04-18T15:37:45.375Z,14.78
2023-04-18T15:40:16.081Z,14.84
2023-04-18T15:42:43.605Z,14.77
2023-04-18T15:45:10.933Z,14.76
2023-04-18T15:47:38.732Z,14.71
2023-04-18T15:50:06.139Z,14.72
2023-04-18T15:52:32.653Z,14.64
2023-04-18T15:54:59.223Z,14.61
2023-04-18T15:57:25.688Z,14.69
2023-04-18T15:59:52.214Z,14.62
2023-04-18T16:02:18.675Z,14.58
2023-04-18T16:04:45.481Z,14.55
2023-04-18T16:07:12.122Z,14.61
2023-04-18T16:09:38.546Z,14.59
2023-04-18T16:12:05.805Z,14.62
2023-04-18T16:14:33.398Z,14.70
2023-04-18T16:16:59.933Z,14.80
2023-04-18T16:19:26.445Z,14.71
2023-04-18T16:21:52.925Z,14.66
2023-04-18T16:24:19.525Z,14.73
2023-04-18T16:26:46.012Z,14.66
2023-04-18T16:29:12.404Z,14.61
2023-04-18T16:31:38.962Z,14.38
2023-04-18T16:34:05.388Z,14.44
2023-04-18T16:36:34.412Z,14.36
2023-04-18T16:39:00.870Z,14.68
2023-04-18T16:41:27.617Z,14.75
2023-04-18T16:43:54.045Z,14.88
2023-04-18T16:46:20.626Z,14.88
2023-04-18T16:48:47.189Z,14.82
2023-04-18T16:51:16.688Z,14.73
2023-04-18T16:53:44.488Z,14.78
2023-04-18T16:56:10.952Z,14.91
2023-04-18T16:58:37.340Z,14.86
2023-04-18T17:01:03.824Z,14.83
2023-04-18T17:03:30.624Z,14.72
2023-04-18T17:05:57.311Z,14.73
2023-04-18T17:08:25.745Z,14.35
2023-04-18T17:10:52.868Z,14.56
2023-04-18T17:13:19.566Z,14.48
2023-04-18T17:15:46.227Z,14.23
2023-04-18T17:18:12.772Z,14.10
2023-04-18T17:20:39.322Z,14.08
2023-04-18T17:23:05.932Z,14.10
2023-04-18T17:25:32.389Z,14.08
2023-04-18T17:28:02.024Z,14.13
2023-04-18T17:30:29.044Z,14.10
2023-04-18T17:32:55.975Z,14.08
2023-04-18T17:35:22.728Z,13.91
2023-04-18T17:37:50.076Z,13.78
2023-04-18T17:40:16.674Z,13.75
2023-04-18T17:42:43.244Z,13.66
2023-04-18T17:45:10.054Z,13.67
2023-04-18T17:47:36.812Z,13.69
2023-04-18T17:50:07.051Z,13.64
2023-04-18T17:52:33.455Z,13.60
2023-04-18T17:55:01.534Z,13.33
2023-04-18T17:57:30.356Z,13.41
2023-04-18T17:59:56.925Z,13.36
2023-04-18T18:02:23.615Z,13.37
2023-04-18T18:04:50.365Z,13.37
2023-04-18T18:07:16.935Z,13.35
2023-04-18T18:09:43.430Z,13.29
2023-04-18T18:12:09.995Z,13.14
2023-04-18T18:14:36.533Z,12.89
2023-04-18T18:17:05.527Z,12.87
2023-04-18T18:19:32.091Z,12.84
2023-04-18T18:21:58.541Z,12.84
2023-04-18T18:24:26.763Z,12.82
2023-04-18T18:26:53.335Z,12.80
2023-04-18T18:29:19.891Z,12.68
2023-04-18T18:31:46.415Z,12.74
2023-04-18T18:34:12.916Z,12.69
2023-04-18T18:36:40.119Z,12.54
2023-04-18T18:39:06.867Z,12.53
2023-04-18T18:41:33.465Z,12.50
2023-04-18T18:44:00.196Z,12.48
2023-04-18T18:46:27.659Z,12.43
2023-04-18T18:48:54.140Z,12.30
2023-04-18T18:51:20.560Z,12.24
2023-04-18T18:53:47.034Z,12.19
2023-04-18T18:56:13.508Z,12.15
2023-04-18T18:58:40.405Z,12.14
2023-04-18T19:01:07.209Z,12.09
2023-04-18T19:03:34.678Z,12.07
2023-04-18T19:06:03.788Z,12.05
2023-04-18T19:08:30.829Z,11.94
2023-04-18T19:10:58.148Z,11.92
2023-04-18T19:13:25.085Z,11.86
2023-04-18T19:15:52.063Z,11.84
2023-04-18T19:18:21.802Z,11.84
2023-04-18T19:20:49.936Z,11.79
2023-04-18T19:25:59.815Z,11.80
2023-04-18T19:28:26.555Z,11.70
2023-04-18T19:30:53.106Z,11.66
2023-04-18T19:33:20.467Z,11.61
2023-04-18T19:35:46.869Z,11.54
2023-04-18T19:38:13.286Z,11.44
2023-04-18T19:40:39.691Z,11.40
2023-04-18T19:43:06.123Z,11.33
2023-04-18T19:45:32.690Z,11.34
2023-04-18T19:47:59.298Z,11.25
2023-04-18T19:50:25.874Z,11.25
2023-04-18T19:52:52.272Z,11.31
2023-04-18T19:55:18.680Z,11.25
2023-04-18T19:57:45.230Z,11.24
2023-04-18T20:00:13.456Z,11.20
2023-04-18T20:02:41.018Z,11.05
2023-04-18T20:05:09.186Z,11.16
2023-04-18T20:07:35.977Z,11.11
2023-04-18T20:10:02.443Z,11.13
2023-04-18T20:12:28.911Z,11.08
2023-04-18T20:14:55.882Z,11.11
2023-04-18T20:17:22.491Z,11.15
2023-04-18T20:19:49.695Z,11.14
2023-04-18T20:22:16.888Z,11.14
2023-04-18T20:24:45.002Z,11.14
2023-04-18T20:27:12.243Z,11.12
2023-04-18T20:29:38.763Z,11.10
2023-04-18T20:32:05.741Z,11.08
2023-04-18T20:34:32.529Z,11.13
2023-04-18T20:36:59.976Z,11.14
2023-04-18T20:39:26.849Z,11.14
2023-04-18T20:42:14.137Z,11.22
2023-04-18T20:44:42.927Z,11.16
2023-04-18T20:47:09.331Z,11.16
2023-04-18T20:49:36.070Z,11.20
2023-04-18T20:52:02.466Z,11.19
2023-04-18T20:54:28.861Z,11.23
2023-04-18T20:56:55.350Z,11.27
2023-04-18T20:59:25.373Z,10.84
2023-04-18T21:01:51.790Z,11.25
2023-04-18T21:04:18.466Z,11.24
2023-04-18T21:06:45.498Z,11.25
2023-04-18T21:09:11.914Z,11.26
2023-04-18T21:11:38.349Z,11.21
2023-04-18T21:14:06.606Z,11.18
2023-04-18T21:16:33.419Z,11.08
2023-04-18T21:19:00.019Z,11.22
2023-04-18T21:21:27.182Z,11.24
2023-04-18T21:23:53.579Z,11.21
2023-04-18T21:26:20.131Z,11.20
2023-04-18T21:29:00.393Z,11.16
2023-04-18T21:31:29.450Z,11.21
2023-04-18T21:33:57.889Z,11.17
2023-04-18T21:36:26.851Z,11.15
2023-04-18T21:38:58.011Z,11.14
2023-04-18T21:41:25.454Z,11.14
2023-04-18T21:43:52.193Z,11.11
2023-04-18T21:46:19.446Z,11.14
2023-04-18T21:48:46.992Z,11.11
2023-04-18T21:51:15.727Z,11.09
2023-04-18T21:53:42.703Z,11.11
2023-04-18T21:56:09.721Z,11.07
2023-04-18T21:58:36.366Z,11.09
2023-04-18T22:01:03.236Z,11.09
2023-04-18T22:03:30.059Z,11.01
2023-04-18T22:05:57.478Z,11.05
2023-04-18T22:08:25.712Z,11.06
2023-04-18T22:10:56.387Z,11.03
2023-04-18T22:13:22.789Z,11.02
2023-04-18T22:15:51.342Z,11.04
2023-04-18T22:18:18.811Z,11.03
2023-04-18T22:20:46.822Z,11.02
2023-04-18T22:23:13.732Z,11.04
2023-04-18T22:25:40.530Z,10.89
2023-04-18T22:28:07.124Z,10.88
2023-04-18T22:30:33.688Z,10.83
2023-04-18T22:33:00.307Z,11.01
2023-04-18T22:35:27.101Z,10.93
2023-04-18T22:37:53.547Z,11.00
2023-04-18T22:40:20.067Z,10.97
2023-04-18T22:42:46.462Z,10.96
2023-04-18T22:45:13.627Z,11.00
2023-04-18T22:47:40.350Z,11.03
2023-04-18T22:50:07.818Z,10.95
2023-04-18T22:55:17.040Z,10.97
2023-04-18T22:57:43.721Z,10.95
2023-04-18T23:00:11.718Z,10.96
2023-04-18T23:02:38.397Z,10.92
2023-04-18T23:05:07.310Z,10.89
2023-04-18T23:07:41.333Z,10.86
2023-04-18T23:12:49.967Z,10.85
2023-04-18T23:15:16.372Z,10.75
2023-04-18T23:17:42.917Z,10.85
2023-04-18T23:20:10.754Z,10.82
2023-04-18T23:22:38.682Z,10.73
2023-04-18T23:25:05.552Z,10.75
2023-04-18T23:27:32.067Z,10.81
2023-04-18T23:29:58.630Z,10.82
2023-04-18T23:32:25.165Z,10.83
2023-04-18T23:34:51.609Z,10.76
2023-04-18T23:37:17.987Z,10.76
2023-04-18T23:39:44.371Z,10.76
2023-04-18T23:42:10.836Z,10.74
2023-04-18T23:44:37.274Z,10.75
2023-04-18T23:47:03.774Z,10.73
2023-04-18T23:49:30.207Z,10.76
2023-04-18T23:51:56.626Z,10.75
2023-04-18T23:54:23.047Z,10.74
2023-04-18T23:56:49.707Z,10.73
2023-04-18T23:59:16.228Z,10.61
